createdAt,value
2023-01-10T00:01:08.694Z,1.20
2023-01-10T00:03:54.249Z,1.20
2023-01-10T00:06:39.594Z,1.20
2023-01-10T00:09:24.975Z,1.20
2023-01-10T00:12:29.055Z,1.20
2023-01-10T01:01:05.138Z,1.20
2023-01-10T01:03:50.682Z,0.93
2023-01-10T01:06:36.050Z,1.10
2023-01-10T01:09:21.337Z,1.13
2023-01-10T01:12:06.985Z,1.30
2023-01-10T01:14:52.599Z,0.90
2023-01-10T02:02:02.710Z,1.10
2023-01-10T02:04:56.437Z,1.02
2023-01-10T02:07:45.706Z,0.80
2023-01-10T02:10:43.688Z,0.97
2023-01-10T02:13:29.668Z,0.75
2023-01-10T03:02:05.297Z,0.77
2023-01-10T03:05:11.975Z,0.80
2023-01-10T03:08:17.093Z,0.75
2023-01-10T03:11:08.455Z,0.73
2023-01-10T03:14:00.967Z,0.60
2023-01-10T04:05:46.453Z,0.60
2023-01-10T04:08:31.724Z,0.90
2023-01-10T04:11:17.135Z,0.70
2023-01-10T04:14:02.709Z,0.80
2023-01-10T05:05:48.554Z,0.60
2023-01-10T05:08:34.674Z,0.65
2023-01-10T05:11:19.774Z,0.77
2023-01-10T05:14:05.112Z,0.70
2023-01-10T06:01:10.167Z,0.50
2023-01-10T06:03:55.417Z,1.02
2023-01-10T06:06:40.761Z,0.80
2023-01-10T06:09:26.191Z,0.85
2023-01-10T06:12:11.477Z,0.70
2023-01-10T06:14:56.884Z,0.45
2023-01-10T06:30:39.791Z,0.75
2023-01-10T06:33:26.509Z,0.70
2023-01-10T06:36:11.951Z,0.80
2023-01-10T06:38:57.185Z,0.90
2023-01-10T06:41:42.490Z,0.80
2023-01-10T06:44:27.943Z,0.80
2023-01-10T06:47:13.256Z,0.88
2023-01-10T06:49:58.518Z,1.30
2023-01-10T06:52:44.216Z,0.82
2023-01-10T06:55:31.262Z,0.82
2023-01-10T06:58:18.491Z,0.75
2023-01-10T07:01:08.085Z,0.90
2023-01-10T07:03:53.667Z,0.70
2023-01-10T07:06:39.671Z,0.80
2023-01-10T07:09:25.481Z,0.90
2023-01-10T07:12:10.795Z,0.77
2023-01-10T07:14:56.041Z,0.90
2023-01-10T07:17:41.404Z,0.70
2023-01-10T07:20:27.222Z,0.90
2023-01-10T07:23:12.444Z,0.95
2023-01-10T07:25:59.141Z,0.80
2023-01-10T07:28:45.499Z,0.77
2023-01-10T07:31:30.820Z,0.80
2023-01-10T07:34:16.109Z,1.00
2023-01-10T07:37:01.729Z,1.02
2023-01-10T07:39:46.838Z,0.70
2023-01-10T07:42:32.026Z,0.80
2023-01-10T07:45:17.674Z,1.10
2023-01-10T07:48:04.921Z,0.90
2023-01-10T07:50:50.243Z,1.10
2023-01-10T07:53:35.544Z,0.90
2023-01-10T07:56:20.820Z,1.05
2023-01-10T07:59:06.090Z,1.00
2023-01-10T08:50:44.775Z,0.80
2023-01-10T08:53:32.710Z,0.80
2023-01-10T08:56:17.940Z,0.70
2023-01-10T08:59:03.620Z,0.80
2023-01-10T09:46:17.358Z,0.60
2023-01-10T09:49:26.485Z,0.73
2023-01-10T09:52:23.631Z,0.85
2023-01-10T09:55:31.429Z,0.80
2023-01-10T09:58:20.411Z,0.75
2023-01-10T10:30:51.507Z,0.80
2023-01-10T10:34:09.246Z,1.30
2023-01-10T10:37:04.181Z,1.00
2023-01-10T10:39:57.707Z,0.80
2023-01-10T10:42:47.243Z,0.93
2023-01-10T10:45:40.634Z,1.13
2023-01-10T10:48:32.240Z,0.90
2023-01-10T10:51:34.174Z,1.00
2023-01-10T10:54:19.864Z,0.90
2023-01-10T10:57:05.519Z,0.80
2023-01-10T10:59:51.135Z,0.80
2023-01-10T11:02:45.154Z,1.00
2023-01-10T11:05:40.593Z,0.83
2023-01-10T11:08:52.765Z,0.90
2023-01-10T11:11:50.439Z,0.77
2023-01-10T11:14:51.363Z,0.85
2023-01-10T11:17:41.634Z,0.90
2023-01-10T11:20:27.183Z,1.13
2023-01-10T11:23:21.494Z,0.88
2023-01-10T11:26:23.739Z,0.98
2023-01-10T11:29:08.659Z,0.75
2023-01-10T11:31:57.131Z,0.70
2023-01-10T11:34:58.994Z,0.90
2023-01-10T11:37:44.303Z,0.80
2023-01-10T11:40:31.468Z,0.70
2023-01-10T11:43:35.977Z,0.80
2023-01-10T11:46:27.989Z,0.90
2023-01-10T11:49:20.596Z,0.80
2023-01-10T11:52:35.451Z,0.85
2023-01-10T11:55:32.499Z,0.77
2023-01-10T11:58:18.330Z,1.13
2023-01-10T12:01:04.351Z,0.90
2023-01-10T12:03:49.761Z,1.00
2023-01-10T12:06:35.217Z,0.80
2023-01-10T12:09:39.507Z,0.77
2023-01-10T12:12:29.575Z,0.80
2023-01-10T12:15:30.894Z,1.10
2023-01-10T12:18:19.782Z,0.90
2023-01-10T12:21:05.834Z,0.88
2023-01-10T12:23:53.022Z,0.95
2023-01-10T12:26:39.283Z,1.00
2023-01-10T12:59:48.592Z,0.77
2023-01-10T13:09:19.661Z,1.00
2023-01-10T13:12:20.211Z,1.00
2023-01-10T13:15:11.153Z,0.95
2023-01-10T13:57:50.617Z,0.80
2023-01-10T14:00:55.123Z,0.95
2023-01-10T14:03:44.803Z,0.98
2023-01-10T14:13:22.648Z,0.95
2023-01-10T14:16:27.939Z,1.10
2023-01-10T14:19:28.638Z,1.00
2023-01-10T14:22:28.040Z,1.00
2023-01-10T14:25:21.932Z,0.85
2023-01-10T14:28:20.557Z,0.82
2023-01-10T14:31:13.071Z,0.90
2023-01-10T14:34:00.196Z,1.00
2023-01-10T14:36:53.995Z,0.80
2023-01-10T14:39:43.055Z,0.90
2023-01-10T14:42:28.883Z,0.88
2023-01-10T14:45:34.906Z,0.90
2023-01-10T14:48:31.620Z,0.88
2023-01-10T14:51:17.557Z,0.90
2023-01-10T14:54:14.621Z,0.90
2023-01-10T14:56:59.916Z,0.80
2023-01-10T14:59:45.614Z,0.80
2023-01-10T16:02:34.276Z,0.93
2023-01-10T16:05:22.028Z,0.88
2023-01-10T16:08:09.486Z,1.00
2023-01-10T16:10:58.580Z,0.77
2023-01-10T16:13:44.311Z,0.95
2023-01-10T16:16:29.789Z,0.90
2023-01-10T16:19:15.310Z,0.93
2023-01-10T16:22:01.816Z,0.93
2023-01-10T16:24:48.245Z,0.88
2023-01-10T16:27:33.476Z,0.90
2023-01-10T16:30:32.305Z,0.98
2023-01-10T16:33:18.619Z,1.10
2023-01-10T16:36:04.665Z,0.80
2023-01-10T16:38:50.061Z,1.10
2023-01-10T16:41:54.088Z,0.75
2023-01-10T16:44:41.592Z,0.85
2023-01-10T17:03:05.443Z,0.70
2023-01-10T17:05:51.809Z,0.83
2023-01-10T17:08:36.860Z,0.80
2023-01-10T17:11:29.806Z,1.08
2023-01-10T17:14:16.899Z,0.93
2023-01-10T17:17:05.750Z,0.95
2023-01-10T17:19:50.899Z,0.90
2023-01-10T17:22:36.179Z,0.77
2023-01-10T17:25:21.410Z,1.02
2023-01-10T17:28:07.137Z,1.02
2023-01-10T17:30:52.490Z,0.75
2023-01-10T17:33:39.039Z,0.83
2023-01-10T17:36:29.116Z,1.23
2023-01-10T17:39:14.949Z,0.90
2023-01-10T17:42:00.891Z,0.75
2023-01-10T17:44:46.396Z,0.80
2023-01-10T18:03:50.791Z,1.00
2023-01-10T18:06:35.850Z,0.90
2023-01-10T18:09:21.043Z,1.20
2023-01-10T18:12:06.883Z,1.00
2023-01-10T18:14:52.289Z,0.90
2023-01-10T18:17:37.711Z,1.23
2023-01-10T18:20:23.099Z,0.90
2023-01-10T18:23:22.017Z,0.80
2023-01-10T18:26:10.296Z,1.00
2023-01-10T18:28:55.524Z,0.88
2023-01-10T18:31:42.330Z,1.13
2023-01-10T18:34:28.091Z,0.98
2023-01-10T18:37:15.467Z,0.90
2023-01-10T18:40:00.723Z,1.08
2023-01-10T18:42:51.251Z,1.08
2023-01-10T19:01:47.716Z,0.80
2023-01-10T19:04:33.052Z,0.82
2023-01-10T19:07:18.467Z,0.90
2023-01-10T19:10:04.416Z,0.77
2023-01-10T19:12:50.008Z,0.85
2023-01-10T19:15:35.670Z,0.83
2023-01-10T19:18:21.220Z,0.90
2023-01-10T19:21:13.208Z,0.95
2023-01-10T19:24:05.110Z,0.80
2023-01-10T19:26:51.829Z,0.88
2023-01-10T19:29:37.310Z,1.10
2023-01-10T19:32:22.617Z,0.98
2023-01-10T19:35:08.682Z,1.00
2023-01-10T19:37:54.175Z,0.88
2023-01-10T19:40:39.505Z,1.05
2023-01-10T19:43:25.876Z,0.97
2023-01-10T19:46:13.076Z,1.10
2023-01-10T19:49:02.003Z,1.10
2023-01-10T19:51:51.226Z,1.10
2023-01-10T19:54:37.603Z,1.30
2023-01-10T19:57:22.730Z,1.20
2023-01-10T20:00:10.152Z,1.42
2023-01-10T20:03:00.252Z,1.35
2023-01-10T20:05:45.278Z,1.30
2023-01-10T20:08:30.787Z,1.38
2023-01-10T20:11:17.910Z,1.40
2023-01-10T20:14:11.663Z,1.83
2023-01-10T20:16:57.204Z,1.92
2023-01-10T20:19:43.624Z,2.00
2023-01-10T20:22:29.257Z,1.77
2023-01-10T20:28:42.225Z,1.50
2023-01-10T20:49:49.392Z,1.55
2023-01-10T20:52:35.383Z,1.73
2023-01-10T20:55:21.665Z,1.98
2023-01-10T20:58:07.651Z,1.90
2023-01-10T21:46:46.694Z,2.03
2023-01-10T21:49:32.522Z,1.83
2023-01-10T21:52:18.202Z,2.50
2023-01-10T21:55:04.586Z,2.58
2023-01-10T21:57:50.488Z,2.13
2023-01-10T22:46:20.629Z,1.90
2023-01-10T22:49:06.526Z,1.83
2023-01-10T22:51:51.959Z,1.83
2023-01-10T22:54:37.316Z,2.00
2023-01-10T22:57:22.598Z,1.92
2023-01-10T23:00:08.913Z,2.13
2023-01-10T23:02:54.390Z,2.13
2023-01-10T23:05:39.641Z,2.10
2023-01-10T23:08:26.969Z,1.90
2023-01-10T23:11:15.741Z,2.00
2023-01-10T23:14:01.179Z,1.90
